createdAt,value
2023-04-23T00:01:41.495Z,15.70
2023-04-23T00:04:10.541Z,15.70
2023-04-23T00:06:39.498Z,15.70
2023-04-23T00:09:08.666Z,15.70
2023-04-23T00:11:37.342Z,15.70
2023-04-23T00:14:07.385Z,15.70
2023-04-23T00:16:36.132Z,15.70
2023-04-23T00:19:04.423Z,15.70
2023-04-23T00:21:32.473Z,15.70
2023-04-23T00:24:00.557Z,15.70
2023-04-23T00:26:28.619Z,15.70
2023-04-23T00:28:56.666Z,15.70
2023-04-23T00:31:27.303Z,15.60
2023-04-23T00:33:55.997Z,15.60
2023-04-23T00:36:24.213Z,15.60
2023-04-23T00:38:52.334Z,15.60
2023-04-23T00:41:21.098Z,15.60
2023-04-23T00:43:52.775Z,15.60
2023-04-23T00:46:21.169Z,15.50
2023-04-23T00:48:51.903Z,15.50
2023-04-23T00:51:19.970Z,15.50
2023-04-23T00:53:48.015Z,15.50
2023-04-23T00:56:16.550Z,15.50
2023-04-23T00:58:45.435Z,15.50
2023-04-23T01:01:14.134Z,15.50
2023-04-23T01:03:44.190Z,15.50
2023-04-23T01:06:13.764Z,15.50
2023-04-23T01:08:44.143Z,15.50
2023-04-23T01:11:14.556Z,15.40
2023-04-23T01:13:43.338Z,15.40
2023-04-23T01:16:11.883Z,15.40
2023-04-23T01:18:41.065Z,15.40
2023-04-23T01:21:11.035Z,15.40
2023-04-23T01:23:40.976Z,15.40
2023-04-23T01:26:10.754Z,15.40
2023-04-23T01:28:39.199Z,15.40
2023-04-23T01:31:07.954Z,15.30
2023-04-23T01:33:36.621Z,15.30
2023-04-23T01:36:05.641Z,15.30
2023-04-23T01:38:35.298Z,15.30
2023-04-23T01:41:05.319Z,15.30
2023-04-23T01:43:33.705Z,15.30
2023-04-23T01:46:01.985Z,15.30
2023-04-23T01:48:30.237Z,15.30
2023-04-23T01:50:58.638Z,15.30
2023-04-23T01:53:26.682Z,15.20
2023-04-23T01:55:56.580Z,15.20
2023-04-23T01:58:26.148Z,15.20
2023-04-23T02:00:54.207Z,15.20
2023-04-23T02:03:22.726Z,15.20
2023-04-23T02:05:53.058Z,15.20
2023-04-23T02:08:21.156Z,15.10
2023-04-23T02:10:49.206Z,15.10
2023-04-23T02:13:17.241Z,15.10
2023-04-23T02:15:46.815Z,15.10
2023-04-23T02:18:14.887Z,15.10
2023-04-23T02:20:42.972Z,15.00
2023-04-23T02:23:12.115Z,15.00
2023-04-23T02:25:40.203Z,15.00
2023-04-23T02:28:08.580Z,15.00
2023-04-23T02:30:37.136Z,15.00
2023-04-23T02:33:06.727Z,15.00
2023-04-23T02:35:34.803Z,14.90
2023-04-23T02:38:02.829Z,14.90
2023-04-23T02:40:31.406Z,14.90
2023-04-23T02:42:59.482Z,14.80
2023-04-23T02:45:27.711Z,14.80
2023-04-23T02:47:55.871Z,14.80
2023-04-23T02:50:25.480Z,14.70
2023-04-23T02:52:53.548Z,14.70
2023-04-23T02:55:21.591Z,14.60
2023-04-23T02:57:49.667Z,14.60
2023-04-23T03:00:18.198Z,14.60
2023-04-23T03:02:46.641Z,14.50
2023-04-23T03:05:14.904Z,14.50
2023-04-23T03:07:44.351Z,14.50
2023-04-23T03:10:12.568Z,14.40
2023-04-23T03:12:40.663Z,14.40
2023-04-23T03:15:09.172Z,14.40
2023-04-23T03:17:38.428Z,14.30
2023-04-23T03:20:08.773Z,14.30
2023-04-23T03:22:37.158Z,14.20
2023-04-23T03:25:08.688Z,14.20
2023-04-23T03:27:39.043Z,14.10
2023-04-23T03:30:09.954Z,14.10
2023-04-23T03:32:38.348Z,14.00
2023-04-23T03:35:07.214Z,14.00
2023-04-23T03:37:35.249Z,14.00
2023-04-23T03:40:07.778Z,14.00
2023-04-23T03:42:37.354Z,13.90
2023-04-23T03:45:06.213Z,13.90
2023-04-23T03:47:34.343Z,13.90
2023-04-23T03:50:02.450Z,13.90
2023-04-23T03:52:30.607Z,13.90
2023-04-23T03:54:58.714Z,13.90
2023-04-23T03:57:26.836Z,13.90
2023-04-23T03:59:56.554Z,13.80
2023-04-23T04:02:24.725Z,13.80
2023-04-23T04:04:55.042Z,13.80
2023-04-23T04:07:23.356Z,13.80
2023-04-23T04:09:51.406Z,13.80
2023-04-23T04:12:19.491Z,13.80
2023-04-23T04:14:47.520Z,13.80
2023-04-23T04:17:16.963Z,13.80
2023-04-23T04:19:45.038Z,13.80
2023-04-23T04:22:13.345Z,13.80
2023-04-23T04:24:42.428Z,13.90
2023-04-23T04:27:11.699Z,13.90
2023-04-23T04:29:40.848Z,13.90
2023-04-23T04:32:09.652Z,13.90
2023-04-23T04:34:40.010Z,13.90
2023-04-23T04:37:10.147Z,13.90
2023-04-23T04:39:38.232Z,13.90
2023-04-23T04:42:07.332Z,13.90
2023-04-23T04:44:37.665Z,13.90
2023-04-23T04:47:07.111Z,13.90
2023-04-23T04:49:36.024Z,13.90
2023-04-23T04:52:05.514Z,13.90
2023-04-23T04:54:33.561Z,13.90
2023-04-23T04:57:02.409Z,13.90
2023-04-23T04:59:30.487Z,13.90
2023-04-23T05:01:59.670Z,13.90
2023-04-23T05:04:27.998Z,13.90
2023-04-23T05:06:56.453Z,13.90
2023-04-23T05:09:26.713Z,13.90
2023-04-23T05:11:54.835Z,13.90
2023-04-23T05:14:22.871Z,13.90
2023-04-23T05:16:51.203Z,13.90
2023-04-23T05:19:19.410Z,13.90
2023-04-23T05:21:47.534Z,13.90
2023-04-23T05:24:15.588Z,13.90
2023-04-23T05:26:45.003Z,13.90
2023-04-23T05:29:17.832Z,14.00
2023-04-23T05:31:46.399Z,14.00
2023-04-23T05:34:14.472Z,14.00
2023-04-23T05:36:42.551Z,14.10
2023-04-23T05:39:10.757Z,14.20
2023-04-23T05:41:38.822Z,14.30
2023-04-23T05:44:08.257Z,14.40
2023-04-23T05:46:36.654Z,14.50
2023-04-23T05:49:04.850Z,14.60
2023-04-23T05:51:32.894Z,14.70
2023-04-23T05:54:00.946Z,14.80
2023-04-23T05:56:29.075Z,14.90
2023-04-23T05:58:57.107Z,15.00
2023-04-23T06:01:26.558Z,15.10
2023-04-23T06:03:54.761Z,15.20
2023-04-23T06:06:23.141Z,15.40
2023-04-23T06:08:51.920Z,15.50
2023-04-23T06:11:20.034Z,15.60
2023-04-23T06:13:48.192Z,15.70
2023-04-23T06:16:16.376Z,15.80
2023-04-23T06:18:45.940Z,15.90
2023-04-23T06:21:14.552Z,16.00
2023-04-23T06:23:42.615Z,16.00
2023-04-23T06:26:10.721Z,16.20
2023-04-23T06:28:39.520Z,16.20
2023-04-23T06:31:08.740Z,16.30
2023-04-23T06:33:37.538Z,16.50
2023-04-23T06:36:09.505Z,16.60
2023-04-23T06:38:37.579Z,16.60
2023-04-23T06:41:06.097Z,16.70
2023-04-23T06:43:34.769Z,16.80
2023-04-23T06:46:02.825Z,16.90
2023-04-23T06:48:32.317Z,16.90
2023-04-23T06:51:00.435Z,16.90
2023-04-23T06:53:30.131Z,17.00
2023-04-23T06:55:58.175Z,17.00
2023-04-23T06:58:31.208Z,17.10
2023-04-23T07:01:00.995Z,17.20
2023-04-23T07:03:29.315Z,17.30
2023-04-23T07:05:57.400Z,17.40
2023-04-23T07:08:25.482Z,17.50
2023-04-23T07:10:54.899Z,17.50
2023-04-23T07:13:24.055Z,17.60
2023-04-23T07:15:52.124Z,17.70
2023-04-23T07:18:20.186Z,17.80
2023-04-23T07:20:48.258Z,17.90
2023-04-23T07:23:16.293Z,18.00
2023-04-23T07:25:44.389Z,18.10
2023-04-23T07:28:13.801Z,18.20
2023-04-23T07:30:41.912Z,18.20
2023-04-23T07:33:10.043Z,18.30
2023-04-23T07:35:38.114Z,18.40
2023-04-23T07:38:06.198Z,18.40
2023-04-23T07:40:34.330Z,18.50
2023-04-23T07:43:02.513Z,18.60
2023-04-23T07:45:32.053Z,18.60
2023-04-23T07:48:01.713Z,18.60
2023-04-23T07:50:31.086Z,18.70
2023-04-23T07:52:59.245Z,18.80
2023-04-23T07:55:27.270Z,18.90
2023-04-23T07:57:55.332Z,19.00
2023-04-23T08:00:23.537Z,19.00
2023-04-23T08:02:54.937Z,19.10
2023-04-23T08:05:23.367Z,19.10
2023-04-23T08:07:51.497Z,19.20
2023-04-23T08:10:19.557Z,19.30
2023-04-23T08:12:47.841Z,19.40
2023-04-23T08:15:16.199Z,19.50
2023-04-23T08:17:44.315Z,19.60
2023-04-23T08:20:13.978Z,19.70
2023-04-23T08:22:42.163Z,19.80
2023-04-23T08:25:11.150Z,19.90
2023-04-23T08:27:39.306Z,20.00
2023-04-23T08:30:08.681Z,20.10
2023-04-23T08:32:36.806Z,20.20
2023-04-23T08:35:05.538Z,20.30
2023-04-23T08:37:35.151Z,20.40
2023-04-23T08:40:03.287Z,20.50
2023-04-23T08:42:39.037Z,20.60
2023-04-23T08:45:08.275Z,20.70
2023-04-23T08:47:37.150Z,20.80
2023-04-23T08:50:06.694Z,20.90
2023-04-23T08:52:39.934Z,20.90
2023-04-23T08:55:11.188Z,21.00
2023-04-23T08:57:41.342Z,21.10
2023-04-23T09:00:11.722Z,21.20
2023-04-23T09:02:42.219Z,21.30
2023-04-23T09:05:11.343Z,21.40
2023-04-23T09:07:41.636Z,21.40
2023-04-23T09:10:12.882Z,21.50
2023-04-23T09:12:45.030Z,21.60
2023-04-23T09:15:14.460Z,21.80
2023-04-23T09:17:45.153Z,21.90
2023-04-23T09:20:14.424Z,22.10
2023-04-23T09:22:47.431Z,22.20
2023-04-23T09:25:17.725Z,22.40
2023-04-23T09:27:46.875Z,22.50
2023-04-23T09:30:15.777Z,22.70
2023-04-23T09:32:46.082Z,22.80
2023-04-23T09:35:15.910Z,23.00
2023-04-23T09:37:48.651Z,23.10
2023-04-23T09:40:18.403Z,23.30
2023-04-23T09:42:50.907Z,23.50
2023-04-23T09:45:19.358Z,23.70
2023-04-23T09:47:52.448Z,23.80
2023-04-23T09:50:21.180Z,23.90
2023-04-23T09:52:57.129Z,24.10
2023-04-23T09:55:35.543Z,24.30
2023-04-23T09:58:05.437Z,24.40
2023-04-23T10:00:38.162Z,24.60
2023-04-23T10:03:08.866Z,24.80
2023-04-23T10:05:59.834Z,25.00
2023-04-23T10:08:31.918Z,25.20
2023-04-23T10:11:06.617Z,25.50
2023-04-23T10:13:43.318Z,25.60
2023-04-23T10:16:22.399Z,25.80
2023-04-23T10:18:55.210Z,25.80
2023-04-23T10:21:33.936Z,26.00
2023-04-23T10:24:07.304Z,26.20
2023-04-23T10:26:39.217Z,26.50
2023-04-23T10:29:10.192Z,26.70
2023-04-23T10:31:38.643Z,26.90
2023-04-23T10:34:08.110Z,27.10
2023-04-23T10:36:36.225Z,27.20
2023-04-23T10:39:09.342Z,27.40
2023-04-23T10:41:39.623Z,27.60
2023-04-23T10:44:12.227Z,27.80
2023-04-23T10:46:40.436Z,28.10
2023-04-23T10:49:14.272Z,28.40
2023-04-23T10:54:17.800Z,28.90
2023-04-23T10:56:46.065Z,29.20
2023-04-23T11:01:50.858Z,29.50
2023-04-23T11:04:23.565Z,29.50
2023-04-23T11:06:54.878Z,29.50
2023-04-23T11:09:39.193Z,29.70
2023-04-23T11:12:09.214Z,30.10
2023-04-23T11:14:39.177Z,30.30
2023-04-23T11:17:07.439Z,30.60
2023-04-23T11:24:42.427Z,31.20
2023-04-23T11:27:12.048Z,31.30
2023-04-23T11:29:42.005Z,31.30
2023-04-23T11:32:12.946Z,31.20
2023-04-23T11:34:41.871Z,31.20
2023-04-23T11:37:12.207Z,31.30
2023-04-23T11:39:42.916Z,31.40
2023-04-23T11:42:11.710Z,31.50
2023-04-23T11:44:41.136Z,31.70
2023-04-23T11:49:40.070Z,32.10
2023-04-23T11:52:08.415Z,32.20
2023-04-23T11:54:36.616Z,32.40
2023-04-23T11:57:06.747Z,32.50
2023-04-23T11:59:34.829Z,32.50
2023-04-23T12:02:02.933Z,32.60
2023-04-23T12:04:32.859Z,32.70
2023-04-23T12:07:04.314Z,32.80
2023-04-23T12:09:38.300Z,33.00
2023-04-23T12:12:07.866Z,33.10
2023-04-23T12:14:35.912Z,33.10
2023-04-23T12:17:11.646Z,33.20
2023-04-23T12:19:40.696Z,33.20
2023-04-23T12:22:08.988Z,33.20
2023-04-23T12:24:48.567Z,33.10
2023-04-23T12:27:21.976Z,33.00
2023-04-23T12:29:50.899Z,32.80
2023-04-23T12:32:22.881Z,32.40
2023-04-23T12:34:54.983Z,32.00
2023-04-23T12:37:26.780Z,31.60
2023-04-23T12:39:56.667Z,31.20
2023-04-23T12:42:26.765Z,30.80
2023-04-23T12:44:55.832Z,30.40
2023-04-23T12:47:24.210Z,30.00
2023-04-23T12:49:53.500Z,29.70
2023-04-23T12:52:22.349Z,29.40
2023-04-23T12:54:52.300Z,29.10
2023-04-23T12:57:23.298Z,28.80
2023-04-23T12:59:54.799Z,28.60
2023-04-23T13:02:23.805Z,28.30
2023-04-23T13:04:52.012Z,28.10
2023-04-23T13:07:20.056Z,27.90
2023-04-23T13:09:48.153Z,27.80
2023-04-23T13:12:16.315Z,27.60
2023-04-23T13:14:44.368Z,27.50
2023-04-23T13:17:14.181Z,27.30
2023-04-23T13:19:42.369Z,27.20
2023-04-23T13:22:10.856Z,27.00
2023-04-23T13:24:38.920Z,26.90
2023-04-23T13:27:07.035Z,26.90
2023-04-23T13:29:35.291Z,26.80
2023-04-23T13:32:03.507Z,26.70
2023-04-23T13:34:34.060Z,26.60
2023-04-23T13:37:05.551Z,26.50
2023-04-23T13:39:33.737Z,26.50
2023-04-23T13:42:09.072Z,26.40
2023-04-23T13:44:37.841Z,26.40
2023-04-23T13:47:06.075Z,26.30
2023-04-23T13:49:35.988Z,26.20
2023-04-23T13:52:07.147Z,26.20
2023-04-23T13:54:36.113Z,26.20
2023-04-23T13:57:04.390Z,26.10
2023-04-23T13:59:32.508Z,26.10
2023-04-23T14:02:00.930Z,26.10
2023-04-23T14:04:29.017Z,26.00
2023-04-23T14:06:58.470Z,26.00
2023-04-23T14:09:26.539Z,26.00
2023-04-23T14:11:54.658Z,26.00
2023-04-23T14:14:22.749Z,26.00
2023-04-23T14:16:51.054Z,26.00
2023-04-23T14:19:19.253Z,26.00
2023-04-23T14:21:47.345Z,26.00
2023-04-23T14:24:24.652Z,26.00
2023-04-23T14:26:52.704Z,26.00
2023-04-23T14:29:25.900Z,26.00
2023-04-23T14:31:54.132Z,26.00
2023-04-23T14:34:22.383Z,26.00
2023-04-23T14:36:52.745Z,26.00
2023-04-23T14:39:23.729Z,26.00
2023-04-23T14:41:51.828Z,26.00
2023-04-23T14:44:20.198Z,26.00
2023-04-23T14:46:49.959Z,25.90
2023-04-23T14:49:18.061Z,25.90
2023-04-23T14:51:46.165Z,25.80
2023-04-23T14:54:14.620Z,25.80
2023-04-23T14:56:44.133Z,25.80
2023-04-23T14:59:12.190Z,25.80
2023-04-23T15:01:40.467Z,25.80
2023-04-23T15:04:08.655Z,25.80
2023-04-23T15:06:36.816Z,25.80
2023-04-23T15:09:05.148Z,25.70
2023-04-23T15:11:33.562Z,25.70
2023-04-23T15:14:08.947Z,25.60
2023-04-23T15:16:48.673Z,25.50
2023-04-23T15:19:57.807Z,25.50
2023-04-23T15:22:26.211Z,25.40
2023-04-23T15:24:54.258Z,25.30
2023-04-23T15:27:25.017Z,25.30
2023-04-23T15:29:54.443Z,25.20
2023-04-23T15:32:22.551Z,25.20
2023-04-23T15:34:50.672Z,25.20
2023-04-23T15:37:20.996Z,25.20
2023-04-23T15:39:49.029Z,25.20
2023-04-23T15:42:18.251Z,25.20
2023-04-23T15:44:50.472Z,25.20
2023-04-23T15:47:22.052Z,25.10
2023-04-23T15:49:50.489Z,25.10
2023-04-23T15:52:19.053Z,25.00
2023-04-23T15:54:47.172Z,24.90
2023-04-23T15:57:15.219Z,24.90
2023-04-23T15:59:43.755Z,24.80
2023-04-23T16:02:12.119Z,24.70
2023-04-23T16:04:42.313Z,24.60
2023-04-23T16:07:10.769Z,24.60
2023-04-23T16:09:38.911Z,24.50
2023-04-23T16:12:08.902Z,24.40
2023-04-23T16:14:38.300Z,24.30
2023-04-23T16:17:06.480Z,24.30
2023-04-23T16:19:34.760Z,24.20
2023-04-23T16:22:04.217Z,24.10
2023-04-23T16:24:32.268Z,24.10
2023-04-23T16:27:02.354Z,24.10
2023-04-23T16:29:30.615Z,24.00
2023-04-23T16:31:58.843Z,24.00
2023-04-23T16:34:26.952Z,23.90
2023-04-23T16:36:55.252Z,23.90
2023-04-23T16:39:24.926Z,23.80
2023-04-23T16:41:52.964Z,23.70
2023-04-23T16:44:21.006Z,23.70
2023-04-23T16:46:49.137Z,23.70
2023-04-23T16:49:17.262Z,23.60
2023-04-23T16:51:45.335Z,23.60
2023-04-23T16:54:13.543Z,23.50
2023-04-23T16:56:45.303Z,23.50
2023-04-23T16:59:15.271Z,23.40
2023-04-23T17:01:43.327Z,23.40
2023-04-23T17:04:11.556Z,23.30
2023-04-23T17:06:39.771Z,23.30
2023-04-23T17:09:08.779Z,23.20
2023-04-23T17:11:36.916Z,23.20
2023-04-23T17:14:06.393Z,23.10
2023-04-23T17:16:34.528Z,23.00
2023-04-23T17:19:03.065Z,23.00
2023-04-23T17:21:32.371Z,22.90
2023-04-23T17:24:00.489Z,22.80
2023-04-23T17:26:28.574Z,22.80
2023-04-23T17:28:56.680Z,22.70
2023-04-23T17:31:26.133Z,22.70
2023-04-23T17:33:55.442Z,22.60
2023-04-23T17:36:23.494Z,22.60
2023-04-23T17:38:51.601Z,22.50
2023-04-23T17:41:19.691Z,22.50
2023-04-23T17:43:49.246Z,22.50
2023-04-23T17:46:17.479Z,22.30
2023-04-23T17:48:53.181Z,22.30
2023-04-23T17:51:23.132Z,22.20
2023-04-23T17:53:51.975Z,22.20
2023-04-23T17:56:20.169Z,22.20
2023-04-23T17:58:48.460Z,22.10
2023-04-23T18:01:17.627Z,22.00
2023-04-23T18:03:48.049Z,22.00
2023-04-23T18:06:16.323Z,21.90
2023-04-23T18:08:44.500Z,21.90
2023-04-23T18:11:12.626Z,21.80
2023-04-23T18:13:44.689Z,21.70
2023-04-23T18:16:12.867Z,21.70
2023-04-23T18:18:40.925Z,21.60
2023-04-23T18:21:10.412Z,21.50
2023-04-23T18:23:39.666Z,21.50
2023-04-23T18:26:07.756Z,21.40
2023-04-23T18:28:37.182Z,21.30
2023-04-23T18:31:05.537Z,21.30
2023-04-23T18:33:38.758Z,21.20
2023-04-23T18:36:22.214Z,21.20
2023-04-23T18:38:50.630Z,21.10
2023-04-23T18:41:18.702Z,21.10
2023-04-23T18:43:46.817Z,21.00
2023-04-23T18:46:16.188Z,21.00
2023-04-23T18:48:52.323Z,20.90
2023-04-23T18:51:27.579Z,20.90
2023-04-23T18:53:55.683Z,20.80
2023-04-23T18:56:25.086Z,20.80
2023-04-23T18:58:53.216Z,20.80
2023-04-23T19:01:21.653Z,20.70
2023-04-23T19:03:49.883Z,20.70
2023-04-23T19:06:18.047Z,20.70
2023-04-23T19:08:47.485Z,20.70
2023-04-23T19:11:15.720Z,20.60
2023-04-23T19:13:43.766Z,20.60
2023-04-23T19:16:11.979Z,20.60
2023-04-23T19:18:40.309Z,20.50
2023-04-23T19:21:08.677Z,20.50
2023-04-23T19:23:36.835Z,20.50
2023-04-23T19:26:06.340Z,20.40
2023-04-23T19:28:34.413Z,20.40
2023-04-23T19:31:04.168Z,20.40
2023-04-23T19:33:32.288Z,20.40
2023-04-23T19:36:00.393Z,20.30
2023-04-23T19:38:28.731Z,20.30
2023-04-23T19:40:56.913Z,20.30
2023-04-23T19:43:26.381Z,20.30
2023-04-23T19:45:54.759Z,20.30
2023-04-23T19:48:22.837Z,20.30
2023-04-23T19:50:51.188Z,20.30
2023-04-23T19:53:19.420Z,20.20
2023-04-23T19:55:47.463Z,20.20
2023-04-23T19:58:17.669Z,20.20
2023-04-23T20:00:47.211Z,20.20
2023-04-23T20:03:16.069Z,20.20
2023-04-23T20:05:46.093Z,20.20
2023-04-23T20:08:25.500Z,20.10
2023-04-23T20:10:54.054Z,20.10
2023-04-23T20:13:23.649Z,20.10
2023-04-23T20:15:55.109Z,20.00
2023-04-23T20:18:25.519Z,20.00
2023-04-23T20:20:53.929Z,20.00
2023-04-23T20:23:22.034Z,20.00
2023-04-23T20:25:50.108Z,19.90
2023-04-23T20:28:18.264Z,19.90
2023-04-23T20:30:46.333Z,19.90
2023-04-23T20:33:18.685Z,19.80
2023-04-23T20:35:47.719Z,19.90
2023-04-23T20:38:19.088Z,19.80
2023-04-23T20:40:47.333Z,19.80
2023-04-23T20:43:15.553Z,19.80
2023-04-23T20:45:44.054Z,19.80
2023-04-23T20:48:12.256Z,19.80
2023-04-23T20:50:41.754Z,19.70
2023-04-23T20:53:09.800Z,19.70
2023-04-23T20:55:38.006Z,19.70
2023-04-23T20:58:06.134Z,19.70
2023-04-23T21:00:34.984Z,19.70
2023-04-23T21:03:03.274Z,19.60
2023-04-23T21:05:31.500Z,19.60
2023-04-23T21:08:00.969Z,19.60
2023-04-23T21:10:29.057Z,19.60
2023-04-23T21:12:57.185Z,19.50
2023-04-23T21:15:25.387Z,19.50
2023-04-23T21:17:53.546Z,19.50
2023-04-23T21:20:21.936Z,19.50
2023-04-23T21:22:50.076Z,19.50
2023-04-23T21:25:19.747Z,19.40
2023-04-23T21:27:48.858Z,19.40
2023-04-23T21:30:24.883Z,19.40
2023-04-23T21:32:52.999Z,19.40
2023-04-23T21:35:21.142Z,19.40
2023-04-23T21:37:49.272Z,19.40
2023-04-23T21:40:17.511Z,19.30
2023-04-23T21:42:47.648Z,19.30
2023-04-23T21:45:16.909Z,19.30
2023-04-23T21:47:45.015Z,19.30
2023-04-23T21:50:13.432Z,19.30
2023-04-23T21:52:43.257Z,19.20
2023-04-23T21:55:12.248Z,19.20
2023-04-23T21:57:40.517Z,19.20
2023-04-23T22:00:13.934Z,19.20
2023-04-23T22:02:46.404Z,19.20
2023-04-23T22:05:16.999Z,19.10
2023-04-23T22:07:45.306Z,19.10
2023-04-23T22:10:15.948Z,19.10
2023-04-23T22:12:44.703Z,19.10
2023-04-23T22:15:15.880Z,19.00
2023-04-23T22:17:46.316Z,19.00
2023-04-23T22:20:15.935Z,19.00
2023-04-23T22:22:44.426Z,19.00
2023-04-23T22:25:13.078Z,18.90
2023-04-23T22:27:42.211Z,18.90
2023-04-23T22:30:13.097Z,18.90
2023-04-23T22:32:41.520Z,18.80
2023-04-23T22:35:10.600Z,18.80
2023-04-23T22:37:38.770Z,18.80
2023-04-23T22:40:09.489Z,18.70
2023-04-23T22:42:37.802Z,18.70
2023-04-23T22:45:07.169Z,18.70
2023-04-23T22:47:37.047Z,18.60
2023-04-23T22:50:07.744Z,18.60
2023-04-23T22:52:35.810Z,18.60
2023-04-23T22:55:03.898Z,18.50
2023-04-23T22:57:32.090Z,18.50
2023-04-23T23:00:01.089Z,18.50
2023-04-23T23:02:29.492Z,18.50
2023-04-23T23:04:59.042Z,18.50
2023-04-23T23:07:27.097Z,18.40
2023-04-23T23:09:55.177Z,18.40
2023-04-23T23:12:23.241Z,18.40
2023-04-23T23:14:51.295Z,18.30
2023-04-23T23:17:19.446Z,18.30
2023-04-23T23:19:47.763Z,18.20
2023-04-23T23:22:17.194Z,18.20
2023-04-23T23:24:45.277Z,18.20
2023-04-23T23:27:13.324Z,18.20
2023-04-23T23:29:41.762Z,18.10
2023-04-23T23:32:10.109Z,18.10
2023-04-23T23:34:38.231Z,18.10
2023-04-23T23:37:06.350Z,18.00
2023-04-23T23:39:35.829Z,18.00
2023-04-23T23:42:03.910Z,18.00
2023-04-23T23:44:31.958Z,18.00
2023-04-23T23:47:00.351Z,18.00
2023-04-23T23:49:28.572Z,17.90
2023-04-23T23:51:56.650Z,17.90
2023-04-23T23:54:24.790Z,17.90
2023-04-23T23:56:55.630Z,18.00
2023-04-23T23:59:23.685Z,17.90
